Alliance, NE

8:21 AM MST on January 24, 2017 (GMT -0700)
Alliance Municipal | | Change Station
Active Advisory: Winter Storm Warning

Elev 3927 ft 42.05 °N, 102.80 °W | Updated 28 minutes ago

Fog
Fog
21 °F
Feels Like 6 °F
N
20
Wind Variable Wind from North

Today
High -- | Low -- °F
--% Chance of Precip.
Yesterday
High -- | Low -- °F
Precip. -- in
Pressure 29.69 in
Visibility 0.2 miles
Clouds
Windchill 6 °F
Dew Point 19 °F
Humidity 92%
Rainfall 0.00 in
Snow Depth Not available.
7:11 AM 4:56 PM
Waning Crescent, 11% visible
METAR KAIA 241453Z AUTO 36017KT 1/4SM FZFG VV005 M06/M07 A2960 RMK AO2 SLP052 T10611072 53009 PWINO FZRANO $
Pressure 29.69 in
Visibility 0.2 miles
Clouds
Windchill 6 °F
Dew Point 19 °F
Humidity 92%
Rainfall 0.00 in
Snow Depth Not available.
7:11 AM 4:56 PM
Waning Crescent, 11% visible
METAR KAIA 241453Z AUTO 36017KT 1/4SM FZFG VV005 M06/M07 A2960 RMK AO2 SLP052 T10611072 53009 PWINO FZRANO $

Get Your Daily Forecast Email!

Thanks for signing up!

Be on the lookout for a verification email in your inbox.

You'll start receiving the daily forecast at 8 AM.

×

10-Day Weather Forecast

Almanac

Astronomy

Jan. 24, 2017 Rise Set
Actual Time
Civil Twilight
Nautical Twilight
Astronomical Twilight
Moon
Length of Visible Light
Length of Day
Tomorrow will be .
, % of the Moon is Illuminated

Today's Extremes

State Highs State Lows

Community

WunderPhotos

Upload Photos

1,962,540 photos uploaded!

WunderBlog® & News

Nearby

Air Quality

  Air Quality AQ Index Pollutant
Not available.

Snow Depth

Station Depth Elevation

Earthquake Activity

City Distance Mag. Time & Date
Minimum magnitude displayed is 2.5.

Coastal Water Temperatures

Place Temperature

Stations

Nearby Weather Stations

Station Location Temp. Windchill Dew Point Humidity Wind Precip. Elev Updated Type
                   

Watches & Warnings

Winter Storm Warning
Issued: 5:49 AM MST Jan. 24, 2017 – National Weather Service

... Winter Storm Warning remains in effect until midnight MST
tonight...

* timing... snow... heavy at times... will continue through this
evening.

* Total snow accumulations... 5 to 10 inches with locally higher
amounts possible along the Pine Ridge.

* Winds/visibility... winds becoming north 15 to 25 mph with gusts
to 35 mph through the morning, continuing through the day.
Visibilities may be reduced to one quarter of a mile at times in
falling and blowing snow.

* Impacts... hazardous travel is likely through much of today due
to a combination of icy and snow packed roads and poor
visibilities due to falling and blowing snow.

Precautionary/preparedness actions...

A Winter Storm Warning for heavy snow means severe winter weather
conditions are expected or occurring. Significant amounts of snow
are forecast that will make travel dangerous. Only travel in an
emergency. If you must travel... keep an extra flashlight...
food... and water in your vehicle in case of an emergency.